Terminal Aerodrome Forecast
Issued by NWS

Home | Current Version | Previous Version | Text Only | Print | Product List | Glossary On
Versions: 1 2 3 4 5 6 7 8 9 10 11 12 13 14 15 16 17 18 19 20 21 22 23 24
000
FTUS45 KTFX 241809 AAA
TAFCTB
TAF AMD
KCTB 241809Z 2418/2518 31006KT P6SM SCT030 BKN050
      TEMPO 2418/2421 4SM BR BKN010
     FM250600 VRB02KT 3SM BR OVC015
     FM250900 VRB03KT 1SM BR OVC010
     FM251500 28007KT P6SM BKN150=

USA.gov is the U.S. government's official web portal to all federal, state and local government web resources and services.